Time;durP1;ratioP1;P1;durP2;ratioP2;P2;SDS_P1;SDS_P2;PMS_P1;PMS_P2;Temp;Humidity;BMP_temperature;BMP_pressure;BME280_temperature;BME280_humidity;BME280_pressure;Samples;Min_cycle;Max_cycle;Signal;HPM_P1;HPM_P2
2021/01/10 00:00:20;;;;;;;45.03;19.67;;;;;;;-0.63;79.17;99582.72;119883;1144;65184;-88
2021/01/10 00:03:05;;;;;;;42.07;20.33;;;;;;;-0.60;78.28;99579.16;119880;1144;65109;-89
2021/01/10 00:05:37;;;;;;;40.23;18.70;;;;;;;-0.61;78.97;99580.92;119895;1145;65121;-85
2021/01/10 00:08:04;;;;;;;36.67;16.67;;;;;;;-0.59;78.42;99576.50;119730;1144;65659;-87
2021/01/10 00:10:31;;;;;;;39.20;16.80;;;;;;;-0.58;78.74;99586.09;119837;1145;65271;-87
2021/01/10 00:13:02;;;;;;;41.40;17.40;;;;;;;-0.56;78.16;99578.22;119872;1145;65078;-89
2021/01/10 00:15:29;;;;;;;37.90;18.10;;;;;;;-0.52;78.63;99584.25;119799;1144;65023;-85
2021/01/10 00:17:57;;;;;;;32.10;15.37;;;;;;;-0.49;78.43;99581.59;119940;1144;65105;-86
2021/01/10 00:20:24;;;;;;;29.93;14.27;;;;;;;-0.44;79.44;99579.75;119817;1144;65019;-85
2021/01/10 00:22:52;;;;;;;21.47;11.57;;;;;;;-0.39;78.97;99580.50;119826;1144;65098;-86
2021/01/10 00:25:20;;;;;;;25.90;12.33;;;;;;;-0.33;79.40;99580.38;119943;1144;65114;-86
2021/01/10 00:27:47;;;;;;;21.80;11.10;;;;;;;-0.30;79.33;99585.59;119837;1144;65152;-86
2021/01/10 00:30:22;;;;;;;24.70;11.00;;;;;;;-0.30;79.16;99586.45;119818;1144;65083;-89
2021/01/10 00:32:52;;;;;;;21.73;11.97;;;;;;;-0.28;78.47;99584.65;119799;1144;65044;-87
2021/01/10 00:35:20;;;;;;;23.70;12.00;;;;;;;-0.26;79.21;99589.86;119962;1144;65250;-86
2021/01/10 00:37:51;;;;;;;24.23;11.43;;;;;;;-0.23;79.16;99591.58;119846;1145;65542;-87
2021/01/10 00:40:18;;;;;;;33.25;11.60;;;;;;;-0.19;78.84;99593.23;119815;1144;65185;-87
2021/01/10 00:42:46;;;;;;;26.70;11.77;;;;;;;-0.15;78.92;99593.14;119815;1144;65067;-86
2021/01/10 00:45:14;;;;;;;23.80;10.47;;;;;;;-0.12;79.52;99587.84;119864;1144;65152;-85
2021/01/10 00:47:41;;;;;;;24.90;10.83;;;;;;;-0.13;78.60;99590.48;119828;1144;65203;-86
2021/01/10 00:50:09;;;;;;;20.23;11.13;;;;;;;-0.13;78.89;99587.85;119854;1144;65083;-86
2021/01/10 00:52:37;;;;;;;20.80;11.30;;;;;;;-0.18;78.72;99590.59;119904;1144;65143;-88
2021/01/10 00:55:06;;;;;;;22.00;11.67;;;;;;;-0.20;78.89;99594.12;119837;1144;65018;-85
2021/01/10 00:57:33;;;;;;;25.67;11.53;;;;;;;-0.23;79.40;99584.56;119867;1144;65474;-88
2021/01/10 01:00:00;;;;;;;18.53;10.43;;;;;;;-0.25;78.52;99582.84;119823;1144;66665;-87
2021/01/10 01:02:27;;;;;;;23.60;11.53;;;;;;;-0.27;79.15;99589.00;119879;1144;65105;-88
2021/01/10 01:04:54;;;;;;;24.90;12.40;;;;;;;-0.28;78.96;99589.90;119819;1144;65601;-87
2021/01/10 01:07:22;;;;;;;22.00;11.90;;;;;;;-0.26;79.00;99592.48;119900;1144;65124;-86
2021/01/10 01:09:48;;;;;;;24.13;11.57;;;;;;;-0.27;78.92;99594.25;119872;1144;65063;-86
2021/01/10 01:12:15;;;;;;;20.03;11.13;;;;;;;-0.25;78.71;99593.34;119837;1144;65235;-87
2021/01/10 01:14:41;;;;;;;29.52;12.80;;;;;;;-0.28;79.36;99592.52;119827;1144;65023;-87
2021/01/10 01:17:08;;;;;;;26.27;13.83;;;;;;;-0.29;78.67;99593.42;119874;1144;65065;-87
2021/01/10 01:19:34;;;;;;;29.93;14.50;;;;;;;-0.30;78.92;99590.84;119841;1144;65103;-86
2021/01/10 01:22:00;;;;;;;24.60;13.13;;;;;;;-0.31;78.91;99594.36;119834;1144;65098;-88
2021/01/10 01:24:27;;;;;;;23.53;13.17;;;;;;;-0.30;79.00;99603.95;119845;1144;65216;-86
2021/01/10 01:26:54;;;;;;;22.95;12.20;;;;;;;-0.30;79.07;99599.58;119867;1144;65101;-86
2021/01/10 01:29:20;;;;;;;25.00;12.57;;;;;;;-0.30;79.37;99602.20;119858;1144;65164;-86
2021/01/10 01:31:46;;;;;;;22.30;12.27;;;;;;;-0.31;79.38;99600.47;119841;1144;65109;-86
2021/01/10 01:34:13;;;;;;;23.50;11.87;;;;;;;-0.30;79.82;99601.34;119840;1143;65181;-86
2021/01/10 01:36:39;;;;;;;26.70;12.65;;;;;;;-0.29;78.82;99596.05;119827;1144;65115;-86
2021/01/10 01:39:06;;;;;;;23.37;12.47;;;;;;;-0.27;78.94;99596.87;119899;1144;65095;-87
2021/01/10 01:41:37;;;;;;;20.77;11.80;;;;;;;-0.27;79.05;99596.01;119894;1144;65076;-86
2021/01/10 01:44:05;;;;;;;23.75;12.10;;;;;;;-0.29;79.17;99597.81;119829;1144;65500;-87
2021/01/10 01:46:34;;;;;;;23.10;11.05;;;;;;;-0.30;78.87;99599.58;119923;1144;65107;-87
2021/01/10 01:49:09;;;;;;;27.73;13.17;;;;;;;-0.29;79.04;99598.67;119872;1144;65567;-87
2021/01/10 01:51:36;;;;;;;24.37;11.45;;;;;;;-0.29;79.35;99596.05;119892;1145;65037;-89
2021/01/10 01:54:07;;;;;;;24.23;13.90;;;;;;;-0.29;79.57;99592.56;119836;1144;65191;-85
2021/01/10 01:56:35;;;;;;;24.27;12.20;;;;;;;-0.31;79.92;99589.97;119858;1144;65104;-87
2021/01/10 01:59:03;;;;;;;23.87;11.07;;;;;;;-0.31;79.73;99596.98;119880;1147;65082;-86
2021/01/10 02:01:31;;;;;;;20.70;11.20;;;;;;;-0.32;79.76;99593.50;119889;1144;65127;-88
2021/01/10 02:04:16;;;;;;;20.70;10.30;;;;;;;-0.30;79.04;99596.95;119940;1144;65188;-87
2021/01/10 02:07:22;;;;;;;23.60;12.40;;;;;;;-0.30;79.45;99591.70;119811;1144;65139;-86
2021/01/10 02:09:57;;;;;;;27.80;13.13;;;;;;;-0.29;79.39;99592.56;119859;1144;65217;-86
2021/01/10 02:12:27;;;;;;;26.13;13.17;;;;;;;-0.28;79.81;99599.53;119851;1144;65191;-85
2021/01/10 02:14:58;;;;;;;25.93;12.37;;;;;;;-0.25;79.51;99602.12;119881;1145;65165;-88
2021/01/10 02:17:27;;;;;;;22.35;11.00;;;;;;;-0.23;79.71;99596.83;119896;1145;65570;-87
2021/01/10 02:19:56;;;;;;;22.40;10.95;;;;;;;-0.21;79.30;99600.28;119871;1144;65171;-87
2021/01/10 02:22:27;;;;;;;23.27;11.63;;;;;;;-0.22;79.61;99596.79;119843;1144;65139;-86
2021/01/10 02:24:55;;;;;;;23.20;11.83;;;;;;;-0.21;79.63;99598.52;119886;1144;65105;-87
2021/01/10 02:27:22;;;;;;;23.67;12.77;;;;;;;-0.19;79.36;99602.00;119838;1144;65115;-86
2021/01/10 02:29:50;;;;;;;28.97;13.43;;;;;;;-0.18;79.47;99590.59;119917;1144;65146;-89
2021/01/10 02:32:19;;;;;;;28.30;11.97;;;;;;;-0.16;79.75;99598.43;119923;1144;65105;-87
2021/01/10 02:34:48;;;;;;;31.33;14.13;;;;;;;-0.15;79.77;99594.91;119878;1144;65028;-89
2021/01/10 02:37:29;;;;;;;27.60;13.83;;;;;;;-0.15;79.78;99597.53;119879;1144;65162;-85
2021/01/10 02:40:14;;;;;;;30.20;13.73;;;;;;;-0.13;79.18;99603.61;119871;1144;65088;-88
2021/01/10 02:42:45;;;;;;;28.30;13.35;;;;;;;-0.13;79.42;99595.73;119905;1144;65489;-88
2021/01/10 02:45:20;;;;;;;19.20;11.27;;;;;;;-0.12;79.61;99597.48;119905;1144;65164;-86
2021/01/10 02:47:48;;;;;;;22.52;11.55;;;;;;;-0.13;79.33;99595.73;119875;1144;65037;-88
2021/01/10 02:50:18;;;;;;;24.70;12.60;;;;;;;-0.14;79.50;99591.38;119868;1144;65092;-88
2021/01/10 02:52:48;;;;;;;30.80;12.97;;;;;;;-0.16;79.50;99596.67;119842;1144;65763;-87
2021/01/10 02:55:17;;;;;;;28.87;12.57;;;;;;;-0.16;79.58;99596.67;119839;1144;65188;-87
2021/01/10 02:57:47;;;;;;;26.20;11.93;;;;;;;-0.13;79.96;99595.73;119911;1144;65187;-86
2021/01/10 03:00:15;;;;;;;29.70;12.57;;;;;;;-0.15;79.88;99597.53;119857;1144;65088;-87
2021/01/10 03:02:43;;;;;;;27.50;11.70;;;;;;;-0.15;79.37;99598.39;119806;1144;65104;-85
2021/01/10 03:05:11;;;;;;;26.80;12.50;;;;;;;-0.16;79.72;99598.43;119885;1144;65262;-85
2021/01/10 03:07:40;;;;;;;21.77;11.67;;;;;;;-0.14;79.71;99601.88;119731;1144;65111;-84
2021/01/10 03:10:11;;;;;;;21.33;11.00;;;;;;;-0.15;79.95;99598.39;119657;1144;65184;-87
2021/01/10 03:12:39;;;;;;;20.93;11.53;;;;;;;-0.13;79.85;99598.36;119845;1144;65146;-86
2021/01/10 03:15:08;;;;;;;15.73;9.40;;;;;;;-0.13;79.67;99593.97;119846;1144;65033;-87
2021/01/10 03:17:40;;;;;;;19.95;10.35;;;;;;;-0.13;79.75;99595.73;119854;1145;65043;-86
2021/01/10 03:20:09;;;;;;;25.85;11.60;;;;;;;-0.12;80.02;99594.86;119873;1144;65076;-86
2021/01/10 03:22:36;;;;;;;22.50;12.27;;;;;;;-0.11;79.91;99596.59;119896;1144;65095;-85
2021/01/10 03:25:05;;;;;;;23.23;12.07;;;;;;;-0.07;79.67;99595.61;119859;1144;65133;-85
2021/01/10 03:27:33;;;;;;;16.87;9.70;;;;;;;-0.10;79.81;99596.55;119932;1144;65102;-87
2021/01/10 03:30:01;;;;;;;21.53;11.23;;;;;;;-0.12;79.54;99592.23;119865;1144;65098;-85
2021/01/10 03:32:27;;;;;;;17.77;10.87;;;;;;;-0.13;79.90;99582.61;119811;1144;65098;-89
2021/01/10 03:34:53;;;;;;;18.80;11.23;;;;;;;-0.17;79.70;99583.58;119825;1144;65130;-86
2021/01/10 03:37:20;;;;;;;19.75;11.03;;;;;;;-0.19;80.11;99585.35;119851;1144;65194;-88
2021/01/10 03:39:46;;;;;;;20.40;10.00;;;;;;;-0.16;80.14;99587.93;119862;1144;65193;-85
2021/01/10 03:42:13;;;;;;;18.83;9.90;;;;;;;-0.13;79.74;99582.61;119845;1144;65168;-85
2021/01/10 03:44:39;;;;;;;17.50;9.50;;;;;;;-0.13;79.56;99585.23;119874;1144;65567;-87
2021/01/10 03:47:05;;;;;;;22.27;10.90;;;;;;;-0.12;80.02;99585.22;119759;1144;65162;-84
2021/01/10 03:49:32;;;;;;;22.80;11.27;;;;;;;-0.13;80.32;99587.85;119437;1144;65075;-85
2021/01/10 03:51:58;;;;;;;20.83;11.80;;;;;;;-0.17;79.90;99588.83;119473;1144;65060;-84
2021/01/10 03:54:24;;;;;;;26.97;12.40;;;;;;;-0.21;80.41;99592.41;119581;1144;66333;-87
2021/01/10 03:56:51;;;;;;;19.57;10.87;;;;;;;-0.25;80.16;99582.84;119618;1144;65195;-86
2021/01/10 03:59:17;;;;;;;20.80;11.07;;;;;;;-0.27;79.92;99586.38;119759;1144;65162;-86
2021/01/10 04:01:44;;;;;;;21.93;11.67;;;;;;;-0.30;80.42;99591.70;119892;1144;65105;-87
2021/01/10 04:04:10;;;;;;;20.57;11.03;;;;;;;-0.32;80.32;99588.25;119885;1144;65191;-88
2021/01/10 04:06:36;;;;;;;24.17;13.47;;;;;;;-0.32;80.19;99588.25;119827;1144;65139;-86
2021/01/10 04:09:04;;;;;;;26.70;13.43;;;;;;;-0.31;80.54;99591.73;119842;1144;65111;-87
2021/01/10 04:11:31;;;;;;;21.27;12.03;;;;;;;-0.33;80.64;99594.36;119842;1144;65193;-90
2021/01/10 04:13:57;;;;;;;23.85;12.10;;;;;;;-0.35;80.28;99593.55;119870;1144;65108;-85
2021/01/10 04:16:24;;;;;;;22.10;11.20;;;;;;;-0.34;80.25;99595.27;119850;1144;65101;-85
2021/01/10 04:18:50;;;;;;;20.33;11.53;;;;;;;-0.33;80.16;99604.00;119822;1144;65126;-84
2021/01/10 04:21:17;;;;;;;22.07;11.88;;;;;;;-0.35;80.65;99595.30;119878;1144;65092;-86
2021/01/10 04:23:43;;;;;;;23.52;12.55;;;;;;;-0.35;80.73;99598.79;119866;1144;65161;-85
2021/01/10 04:26:09;;;;;;;18.60;11.27;;;;;;;-0.33;80.85;99596.13;119921;1144;65098;-87
2021/01/10 04:28:36;;;;;;;18.15;10.60;;;;;;;-0.34;80.37;99600.52;119837;1144;65163;-86
2021/01/10 04:31:03;;;;;;;23.50;13.10;;;;;;;-0.34;79.94;99591.78;119816;1144;65449;-87
2021/01/10 04:33:30;;;;;;;22.40;11.03;;;;;;;-0.36;80.17;99591.81;119914;1144;65561;-86
2021/01/10 04:35:56;;;;;;;24.20;11.43;;;;;;;-0.35;80.31;99598.79;119883;1145;65120;-85
2021/01/10 04:38:22;;;;;;;19.48;11.20;;;;;;;-0.34;80.07;99597.89;119814;1145;65115;-85
2021/01/10 04:40:49;;;;;;;21.60;10.03;;;;;;;-0.32;81.24;99608.34;119889;1144;65098;-86
2021/01/10 04:43:16;;;;;;;19.05;10.25;;;;;;;-0.30;81.04;99606.58;119822;1144;65038;-86
2021/01/10 04:45:42;;;;;;;18.47;9.47;;;;;;;-0.28;80.43;99604.78;119898;1144;65107;-85
2021/01/10 04:48:10;;;;;;;17.60;8.90;;;;;;;-0.24;80.86;99610.85;119807;1144;65169;-88
2021/01/10 04:50:38;;;;;;;20.00;10.90;;;;;;;-0.23;80.65;99612.58;119896;1145;65191;-85
2021/01/10 04:53:07;;;;;;;21.57;10.83;;;;;;;-0.22;81.07;99611.67;119850;1144;65208;-87
2021/01/10 04:55:34;;;;;;;16.57;9.23;;;;;;;-0.21;80.86;99610.78;119823;1145;65162;-87
2021/01/10 04:58:04;;;;;;;19.27;9.43;;;;;;;-0.22;80.58;99612.54;119823;1144;65171;-87
2021/01/10 05:00:32;;;;;;;21.50;10.70;;;;;;;-0.25;80.91;99609.09;119852;1145;65165;-89
2021/01/10 05:03:06;;;;;;;20.00;9.55;;;;;;;-0.30;80.29;99617.95;119889;1144;65079;-85
2021/01/10 05:05:37;;;;;;;17.75;9.20;;;;;;;-0.32;81.40;99609.25;119830;1144;65168;-85
2021/01/10 05:08:06;;;;;;;17.60;10.10;;;;;;;-0.32;80.59;99614.49;119867;1144;65108;-85
2021/01/10 05:10:33;;;;;;;19.93;10.07;;;;;;;-0.31;80.97;99613.59;119921;1144;65105;-85
2021/01/10 05:12:59;;;;;;;17.97;10.43;;;;;;;-0.29;80.65;99608.31;119897;1144;65010;-85
2021/01/10 05:15:25;;;;;;;17.70;9.33;;;;;;;-0.25;81.08;99611.72;119829;1144;66411;-85
2021/01/10 05:17:53;;;;;;;15.40;9.10;;;;;;;-0.24;80.59;99611.72;119849;1144;65417;-85
2021/01/10 05:20:20;;;;;;;20.20;10.10;;;;;;;-0.22;81.31;99609.91;119898;1144;65248;-86
2021/01/10 05:22:50;;;;;;;19.30;9.77;;;;;;;-0.22;80.59;99617.79;119851;1144;65153;-86
2021/01/10 05:25:17;;;;;;;13.70;8.10;;;;;;;-0.20;80.96;99618.61;119858;1145;65520;-85
2021/01/10 05:27:51;;;;;;;15.67;8.27;;;;;;;-0.21;80.81;99622.14;119869;1144;65084;-85
2021/01/10 05:30:27;;;;;;;13.90;8.63;;;;;;;-0.22;80.85;99625.66;119903;1145;65005;-88
2021/01/10 05:33:11;;;;;;;13.70;7.17;;;;;;;-0.21;80.62;99624.77;119831;1144;65248;-85
2021/01/10 05:35:49;;;;;;;13.43;7.73;;;;;;;-0.18;81.35;99629.97;119870;1144;65101;-83
2021/01/10 05:38:33;;;;;;;12.93;8.60;;;;;;;-0.19;81.23;99622.10;119821;1144;65136;-85
2021/01/10 05:41:01;;;;;;;15.80;9.20;;;;;;;-0.15;80.97;99629.03;119897;1145;65095;-84
2021/01/10 05:43:28;;;;;;;16.60;8.40;;;;;;;-0.11;81.41;99630.72;119786;1144;65103;-85
2021/01/10 05:45:55;;;;;;;18.15;8.70;;;;;;;-0.05;80.50;99625.34;119838;1144;65296;-87
2021/01/10 05:48:22;;;;;;;13.07;7.80;;;;;;;-0.03;81.19;99642.78;119818;1144;65099;-86
2021/01/10 05:50:52;;;;;;;18.40;8.87;;;;;;;0.03;81.41;99646.19;119822;1145;65245;-88
2021/01/10 05:53:21;;;;;;;12.60;8.10;;;;;;;0.03;81.02;99647.05;119856;1142;65178;-86
2021/01/10 05:55:55;;;;;;;8.53;6.37;;;;;;;0.02;80.92;99653.20;119892;1145;65055;-86
2021/01/10 05:58:27;;;;;;;14.47;8.43;;;;;;;-0.02;80.63;99646.27;119837;1144;65587;-85
2021/01/10 06:00:54;;;;;;;15.83;8.53;;;;;;;-0.01;80.99;99651.48;119888;1144;65092;-85
2021/01/10 06:03:23;;;;;;;12.13;7.27;;;;;;;0.03;81.37;99652.30;119823;1144;65136;-88
2021/01/10 06:06:00;;;;;;;10.30;6.00;;;;;;;0.07;81.32;99653.98;119923;1144;65092;-85
2021/01/10 06:08:36;;;;;;;14.97;7.20;;;;;;;0.05;80.88;99655.75;119809;1144;65098;-87
2021/01/10 06:11:24;;;;;;;10.38;5.25;;;;;;;0.03;81.17;99647.05;119861;1144;65187;-85
2021/01/10 06:13:59;;;;;;;10.17;5.87;;;;;;;-0.03;80.88;99662.92;119757;1144;65091;-85
2021/01/10 06:16:30;;;;;;;;;;;;;;;-0.07;81.08;99661.24;120010;1144;65190;-86
2021/01/10 06:19:02;;;;;;;11.85;6.75;;;;;;;-0.07;80.50;99664.73;119829;1144;65076;-88
2021/01/10 06:21:30;;;;;;;10.13;6.83;;;;;;;-0.05;81.28;99659.47;119910;1144;65113;-87
2021/01/10 06:23:59;;;;;;;8.27;5.60;;;;;;;-0.03;80.79;99661.16;119861;1144;65172;-86
2021/01/10 06:26:27;;;;;;;11.00;6.50;;;;;;;-0.03;81.05;99663.79;119834;1144;65104;-85
2021/01/10 06:28:56;;;;;;;8.80;5.83;;;;;;;-0.05;80.87;99667.35;119806;1144;65205;-86
2021/01/10 06:31:26;;;;;;;11.80;7.67;;;;;;;-0.09;80.97;99668.30;119823;1144;65105;-85
2021/01/10 06:33:58;;;;;;;14.60;9.73;;;;;;;-0.08;81.41;99670.02;119890;1144;65143;-86
2021/01/10 06:36:27;;;;;;;14.10;8.83;;;;;;;-0.08;81.38;99662.14;119865;1144;65248;-85
2021/01/10 06:39:25;;;;;;;13.40;8.87;;;;;;;-0.08;81.48;99670.02;119872;1144;65140;-85
2021/01/10 06:42:06;;;;;;;11.15;6.35;;;;;;;-0.07;81.39;99672.61;119918;1144;65082;-86
2021/01/10 06:44:37;;;;;;;10.07;6.93;;;;;;;-0.07;80.95;99674.38;119933;1144;65102;-85
2021/01/10 06:47:05;;;;;;;10.55;7.35;;;;;;;-0.07;80.94;99684.88;119908;1144;65149;-84
2021/01/10 06:49:34;;;;;;;14.65;8.80;;;;;;;-0.08;81.65;99677.89;119957;1142;65191;-85
2021/01/10 06:52:03;;;;;;;20.20;11.03;;;;;;;-0.11;81.65;99673.58;119827;1145;65140;-88
2021/01/10 06:54:40;;;;;;;23.27;11.83;;;;;;;-0.11;80.92;99680.59;119884;1144;65069;-89
2021/01/10 06:57:07;;;;;;;19.77;11.03;;;;;;;-0.11;81.50;99685.84;119930;1145;65127;-84
2021/01/10 06:59:55;;;;;;;23.33;12.27;;;;;;;-0.10;81.26;99680.56;119873;1144;65102;-84
2021/01/10 07:02:21;;;;;;;25.37;12.80;;;;;;;-0.04;81.19;99683.06;119938;1144;65130;-85
2021/01/10 07:04:56;;;;;;;22.43;10.17;;;;;;;-0.03;81.69;99681.30;119823;1144;65111;-88
2021/01/10 07:07:30;;;;;;;30.13;15.40;;;;;;;-0.06;81.93;99684.00;119846;1145;65101;-87
2021/01/10 07:09:57;;;;;;;24.33;13.40;;;;;;;-0.08;81.11;99691.89;119865;1144;65533;-84
2021/01/10 07:12:23;;;;;;;25.05;11.95;;;;;;;-0.08;81.03;99686.63;119850;1144;65089;-85
2021/01/10 07:14:50;;;;;;;21.83;12.00;;;;;;;-0.05;81.65;99686.59;119848;1144;65132;-85
2021/01/10 07:17:18;;;;;;;23.43;11.60;;;;;;;-0.01;81.65;99687.38;119818;1144;65170;-85
2021/01/10 07:19:47;;;;;;;20.10;10.60;;;;;;;-0.02;81.16;99690.91;119811;1144;65123;-84
2021/01/10 07:22:28;;;;;;;25.37;13.83;;;;;;;-0.05;81.39;99691.84;119940;1144;65029;-85
2021/01/10 07:24:55;;;;;;;24.50;13.13;;;;;;;-0.02;81.36;99688.28;119826;1145;65108;-84
2021/01/10 07:27:34;;;;;;;21.30;11.60;;;;;;;-0.03;81.56;99687.42;119772;1145;65105;-87
2021/01/10 07:30:22;;;;;;;25.70;14.07;;;;;;;0.02;81.01;99697.84;119892;1144;65071;-87
2021/01/10 07:32:48;;;;;;;27.20;13.20;;;;;;;0.05;81.48;99702.16;119807;1144;65129;-85
2021/01/10 07:35:15;;;;;;;36.80;14.53;;;;;;;0.05;80.76;99697.77;119859;1144;65164;-85
2021/01/10 07:37:44;;;;;;;49.47;18.57;;;;;;;0.06;81.69;99696.87;119802;1145;65098;-86
2021/01/10 07:40:12;;;;;;;61.27;25.80;;;;;;;0.12;81.61;99703.77;119841;1144;65714;-84
2021/01/10 07:42:40;;;;;;;39.27;17.57;;;;;;;0.11;81.73;99702.91;119829;1144;65085;-87
2021/01/10 07:45:17;;;;;;;47.13;25.97;;;;;;;0.15;81.82;99707.22;119955;1144;65107;-84
2021/01/10 07:47:46;;;;;;;52.93;26.73;;;;;;;0.16;81.74;99710.70;119994;1144;65071;-87
2021/01/10 07:50:16;;;;;;;34.90;18.37;;;;;;;0.22;81.44;99710.59;119981;1144;65177;-84
2021/01/10 07:52:42;;;;;;;99.13;40.53;;;;;;;0.20;81.21;99710.63;119873;1144;65236;-83
2021/01/10 07:55:17;;;;;;;37.70;18.70;;;;;;;0.18;81.06;99708.91;119870;1144;65121;-85
2021/01/10 07:57:45;;;;;;;29.37;16.60;;;;;;;0.18;81.56;99711.53;119901;1144;65069;-84
2021/01/10 08:00:27;;;;;;;46.10;27.35;;;;;;;0.22;81.45;99705.33;119960;1144;65090;-85
2021/01/10 08:02:59;;;;;;;41.05;24.60;;;;;;;0.28;81.25;99709.60;119883;1144;65167;-82
2021/01/10 08:05:32;;;;;;;27.80;15.50;;;;;;;0.40;81.41;99714.61;119823;1144;65219;-85
2021/01/10 08:08:14;;;;;;;26.47;14.40;;;;;;;0.51;81.50;99710.01;119880;1144;65163;-85
2021/01/10 08:10:42;;;;;;;23.00;12.80;;;;;;;0.52;80.63;99716.98;119836;1144;65159;-88
2021/01/10 08:13:27;;;;;;;21.50;13.20;;;;;;;0.48;80.59;99720.56;119876;1144;65095;-86
2021/01/10 08:15:54;;;;;;;;;;;;;;;0.54;80.60;99720.44;119881;1144;65168;-83
2021/01/10 08:18:23;;;;;;;22.80;11.85;;;;;;;0.57;80.48;99725.62;119825;1144;65239;-87
2021/01/10 08:20:51;;;;;;;20.07;11.40;;;;;;;0.58;80.54;99719.49;120000;1144;65138;-84
2021/01/10 08:23:18;;;;;;;22.93;12.80;;;;;;;0.65;81.18;99717.59;120418;1144;65529;-86
2021/01/10 08:25:45;;;;;;;21.50;12.83;;;;;;;0.78;81.07;99722.55;120250;1143;64970;-83
2021/01/10 08:28:19;;;;;;;22.55;12.65;;;;;;;0.92;80.94;99724.02;119940;1144;65136;-85
2021/01/10 08:30:47;;;;;;;28.25;16.80;;;;;;;1.07;81.20;99726.28;119995;1144;65248;-84
2021/01/10 08:33:18;;;;;;;27.35;14.65;;;;;;;1.12;80.88;99728.81;119981;1144;65053;-83
2021/01/10 08:35:45;;;;;;;26.83;14.30;;;;;;;1.09;80.54;99729.77;119999;1144;65201;-82
2021/01/10 08:38:12;;;;;;;22.55;11.90;;;;;;;1.08;80.39;99733.27;120027;1144;65098;-84
2021/01/10 08:40:38;;;;;;;22.83;12.43;;;;;;;1.11;80.50;99734.98;119944;1144;65063;-85
2021/01/10 08:43:06;;;;;;;28.73;15.43;;;;;;;1.13;80.69;99734.03;119987;1144;65220;-83
2021/01/10 08:45:33;;;;;;;28.47;14.00;;;;;;;1.17;80.60;99735.70;120040;1144;65075;-84
2021/01/10 08:48:05;;;;;;;35.27;14.13;;;;;;;1.16;80.63;99739.24;120120;1144;65028;-83
2021/01/10 08:50:41;;;;;;;53.40;23.13;;;;;;;1.11;80.47;99738.48;120028;1144;65207;-82
2021/01/10 08:53:08;;;;;;;36.47;18.67;;;;;;;1.07;80.77;99740.30;119964;1144;65162;-83
2021/01/10 08:55:38;;;;;;;37.40;17.47;;;;;;;1.15;80.83;99748.04;119888;1144;65134;-88
2021/01/10 08:58:07;;;;;;;26.63;13.93;;;;;;;1.18;80.42;99747.09;119995;1144;65173;-84
2021/01/10 09:00:41;;;;;;;18.40;10.57;;;;;;;1.10;80.14;99749.91;120189;1144;65073;-83
2021/01/10 09:03:18;;;;;;;25.23;12.43;;;;;;;1.03;80.76;99750.94;120054;1144;65031;-84
2021/01/10 09:05:47;;;;;;;31.47;14.87;;;;;;;0.97;80.24;99753.70;120019;1144;65188;-84
2021/01/10 09:08:23;;;;;;;21.60;10.95;;;;;;;0.93;80.88;99749.41;120083;1144;65094;-83
2021/01/10 09:11:14;;;;;;;24.53;13.10;;;;;;;0.89;80.66;99755.61;119983;1144;65072;-85
2021/01/10 09:13:43;;;;;;;31.17;14.37;;;;;;;0.85;80.40;99752.20;120068;1144;65095;-83
2021/01/10 09:16:14;;;;;;;26.87;13.50;;;;;;;0.87;80.68;99758.28;119929;1144;65073;-86
2021/01/10 09:18:42;;;;;;;43.93;21.00;;;;;;;0.98;80.87;99764.19;119896;1144;65049;-87
2021/01/10 09:21:16;;;;;;;59.23;23.30;;;;;;;1.05;80.39;99763.15;119913;1145;65284;-86
2021/01/10 09:23:50;;;;;;;37.13;17.70;;;;;;;1.09;80.55;99766.59;120059;1144;65034;-83
2021/01/10 09:26:27;;;;;;;41.53;19.07;;;;;;;1.14;80.50;99763.83;119983;1144;65121;-83
2021/01/10 09:28:55;;;;;;;31.33;15.70;;;;;;;1.13;80.75;99762.97;119942;1144;65129;-83
2021/01/10 09:31:37;;;;;;;34.45;16.30;;;;;;;1.17;80.41;99761.15;119962;1144;65101;-85
2021/01/10 09:34:05;;;;;;;28.97;14.70;;;;;;;1.25;80.74;99765.33;120054;1144;65124;-83
2021/01/10 09:36:32;;;;;;;37.47;19.27;;;;;;;1.38;80.52;99768.53;119962;1144;65098;-88
2021/01/10 09:38:58;;;;;;;33.90;16.85;;;;;;;1.47;80.67;99767.48;119878;1144;65100;-84
2021/01/10 09:41:25;;;;;;;29.53;16.00;;;;;;;1.52;80.47;99768.20;119939;1144;65192;-82
2021/01/10 09:43:54;;;;;;;27.77;13.17;;;;;;;1.48;80.08;99756.05;119953;1144;65089;-83
2021/01/10 09:46:49;;;;;;;31.20;14.47;;;;;;;1.44;80.23;99757.87;120042;1144;65220;-83
2021/01/10 09:49:22;;;;;;;36.37;14.47;;;;;;;1.44;80.16;99764.90;119907;1144;65102;-85
2021/01/10 09:51:48;;;;;;;62.87;22.80;;;;;;;1.40;80.05;99756.23;119954;1144;65089;-84
2021/01/10 09:54:20;;;;;;;50.27;22.73;;;;;;;1.44;80.37;99757.87;119873;1145;65102;-83
2021/01/10 09:56:50;;;;;;;74.80;30.15;;;;;;;1.46;80.19;99761.31;119911;1144;65085;-83
2021/01/10 09:59:33;;;;;;;57.17;25.23;;;;;;;1.44;80.31;99757.00;119876;1144;65532;-84
2021/01/10 10:02:07;;;;;;;29.50;15.20;;;;;;;1.44;80.15;99759.63;119819;1144;65246;-83
2021/01/10 10:04:34;;;;;;;47.77;26.27;;;;;;;1.49;80.35;99755.13;119854;1145;65076;-84
2021/01/10 10:07:02;;;;;;;25.23;15.33;;;;;;;1.50;79.67;99754.23;119831;1144;65159;-86
2021/01/10 10:09:52;;;;;;;21.30;12.80;;;;;;;1.48;80.02;99756.91;119864;1144;65127;-83
2021/01/10 10:12:21;;;;;;;20.83;11.57;;;;;;;1.45;80.10;99754.33;119785;1145;65266;-86
2021/01/10 10:14:54;;;;;;;16.43;9.50;;;;;;;1.49;80.08;99756.00;119897;1145;65210;-83
2021/01/10 10:17:24;;;;;;;18.63;10.33;;;;;;;1.62;80.01;99743.40;119802;1145;65184;-85
2021/01/10 10:19:51;;;;;;;22.30;12.67;;;;;;;1.77;79.88;99737.73;119856;1144;65116;-85
2021/01/10 10:22:34;;;;;;;30.97;16.40;;;;;;;1.90;80.10;99741.78;119809;1144;65053;-85
2021/01/10 10:25:05;;;;;;;33.17;17.93;;;;;;;2.13;80.09;99730.65;119860;1144;65178;-83
2021/01/10 10:27:32;;;;;;;28.17;15.30;;;;;;;2.29;79.62;99738.12;119869;1144;65111;-86
2021/01/10 10:30:00;;;;;;;23.00;12.63;;;;;;;2.36;79.23;99737.94;119808;1144;65102;-83
2021/01/10 10:32:28;;;;;;;27.60;15.10;;;;;;;2.44;78.93;99730.67;119867;1144;65079;-83
2021/01/10 10:34:55;;;;;;;30.83;14.80;;;;;;;2.56;78.84;99732.09;119788;1144;65142;-83
2021/01/10 10:37:22;;;;;;;40.30;19.75;;;;;;;2.61;79.23;99731.97;119791;1144;65207;-87
2021/01/10 10:39:49;;;;;;;31.73;17.20;;;;;;;2.69;79.06;99729.97;119859;1144;65191;-84
2021/01/10 10:42:17;;;;;;;35.47;20.47;;;;;;;2.83;79.10;99727.78;119837;1144;65185;-82
2021/01/10 10:44:44;;;;;;;30.53;16.83;;;;;;;2.90;78.79;99728.45;119854;1144;65162;-82
2021/01/10 10:47:13;;;;;;;30.00;15.90;;;;;;;2.92;78.73;99722.20;119850;1144;65076;-83
2021/01/10 10:49:41;;;;;;;41.87;20.33;;;;;;;2.98;79.16;99722.02;119848;1144;65079;-84
2021/01/10 10:52:09;;;;;;;52.70;25.40;;;;;;;2.96;78.51;99721.22;119839;1144;65481;-84
2021/01/10 10:54:36;;;;;;;64.67;29.17;;;;;;;2.90;79.06;99717.91;119939;1144;65178;-82
2021/01/10 10:57:03;;;;;;;45.13;22.27;;;;;;;2.84;78.67;99716.31;119882;1144;65116;-82
2021/01/10 10:59:29;;;;;;;34.93;19.37;;;;;;;2.82;79.04;99723.41;119832;1144;65181;-84
2021/01/10 11:01:55;;;;;;;22.47;14.30;;;;;;;2.79;79.33;99720.85;119855;1144;65089;-85
2021/01/10 11:04:22;;;;;;;25.00;13.40;;;;;;;2.74;79.29;99721.92;119831;1144;65127;-83
2021/01/10 11:06:51;;;;;;;23.87;14.93;;;;;;;2.61;79.64;99724.06;119797;1144;65168;-82
2021/01/10 11:09:17;;;;;;;27.07;16.67;;;;;;;2.47;79.60;99715.66;119880;1145;65030;-83
2021/01/10 11:11:47;;;;;;;47.63;29.13;;;;;;;2.36;79.91;99716.84;119844;1144;65130;-81
2021/01/10 11:14:16;;;;;;;37.40;22.27;;;;;;;2.30;79.64;99717.02;119842;1144;65292;-82
2021/01/10 11:16:43;;;;;;;37.60;20.40;;;;;;;2.25;80.24;99708.37;119813;1145;65104;-84
2021/01/10 11:19:11;;;;;;;33.27;17.07;;;;;;;2.22;79.69;99707.58;119860;1144;65133;-84
2021/01/10 11:21:39;;;;;;;31.37;17.20;;;;;;;2.20;79.89;99704.98;119840;1144;65031;-83
2021/01/10 11:24:07;;;;;;;29.70;16.50;;;;;;;2.16;80.14;99711.23;119875;1145;65371;-86
2021/01/10 11:26:35;;;;;;;30.80;17.43;;;;;;;2.27;80.40;99703.91;119778;1144;65037;-84